Flight Track Log - Related Links

Times and Time Zones

All times are in EDT time to prevent confusion due to time zone crossing. See the UAL4612 flight status page for this flight to view local times or setup timezone preferences in your user account.

Time Position Orientation Groundspeed Altitude Reporting Facility
EDT Latitude Longitude Course Direction KTS MPH feet Rate Location/Type
Wed 04:08:02 PM 41.9667 -87.8500 173° South 176 203 2,400  Level Chicago TRACON
Wed 04:09:03 PM 41.9272 -87.8075 141° Southeast 216 249 3,900 1,268 Climbing Chicago Center
Wed 04:10:00 PM 41.6765 -87.6654 157° South  Level Estimated
Wed 04:10:05 PM 41.8603 -87.7722 159° South 250 288 5,000  Level Chicago Center
Wed 04:11:00 PM 41.5746 -87.5854 156° South  Level Estimated
Wed 04:11:07 PM 41.7858 -87.7694 178° South 263 303 5,100  Level Chicago Center
Wed 04:12:00 PM 41.4727 -87.5058 159° South  Level Estimated
Wed 04:12:09 PM 41.7100 -87.7664 178° South 270 311 7,400  Level Chicago Center
Wed 04:13:00 PM 41.3708 -87.4263 173° South  Level Estimated
Wed 04:13:11 PM 41.6236 -87.7161 156° South 285 328 9,600  Level Chicago Center
Wed 04:14:13 PM 41.5489 -87.6614 151° Southeast 300 345 11,500 1,790 Climbing Chicago Center
Wed 04:15:15 PM 41.4683 -87.6031 152° Southeast 320 368 13,300 1,355 Climbing Chicago Center
Wed 04:16:17 PM 41.3753 -87.5647 163° South 364 419 14,300 968 Climbing Chicago Center
Wed 04:17:19 PM 41.2725 -87.5458 172° South 370 426 15,300 952 Climbing Chicago Center
Wed 04:18:23 PM 41.1658 -87.5256 172° South 383 441 16,300 1,056 Climbing Chicago Center
Wed 04:19:24 PM 41.0342 -87.4886 168° South 401 461 17,500 976 Climbing Chicago Center
Wed 04:20:26 PM 40.9258 -87.4586 168° South 398 458 18,300 871 Climbing Chicago Center
Wed 04:21:28 PM 40.8131 -87.4300 169° South 409 471 19,300 968 Climbing Chicago Center
Wed 04:22:30 PM 40.6992 -87.4017 169° South 416 479 20,300 968 Climbing Chicago Center
Wed 04:23:32 PM 40.5858 -87.3711 168° South 418 481 21,300 919 Climbing Chicago Center
Wed 04:24:34 PM 40.4711 -87.3414 169° South 421 484 22,200 1,016 Climbing Chicago Center
Wed 04:25:36 PM 40.3358 -87.2808 161° South 433 498 23,400 1,065 Climbing Chicago Center
Wed 04:26:38 PM 40.2231 -87.2264 160° South 431 496 24,400 968 Climbing Chicago Center
Wed 04:27:40 PM 40.1225 -87.1433 148° Southeast 433 498 25,400 957 Climbing Chicago Center
Wed 04:28:12 PM 40.0611 -87.0931 148° Southeast 431 496 25,900 957 Climbing Indianapolis Center
Wed 04:29:14 PM 39.9600 -87.0083 147° Southeast 434 499 26,900 968 Climbing Indianapolis Center
Wed 04:30:16 PM 39.8611 -86.9247 147° Southeast 427 491 27,900 919 Climbing Indianapolis Center
Wed 04:31:18 PM 39.7628 -86.8436 148° Southeast 423 487 28,800 1,016 Climbing Indianapolis Center
Wed 04:32:20 PM 39.6444 -86.7453 147° Southeast 425 489 30,000 1,016 Climbing Indianapolis Center
Wed 04:33:22 PM 39.5464 -86.6642 147° Southeast 424 488 30,900 919 Climbing Indianapolis Center
Wed 04:34:24 PM 39.4464 -86.5814 147° Southeast 431 496 31,900 532 Climbing Indianapolis Center
Wed 04:35:26 PM 39.3439 -86.4978 148° Southeast 438 504 32,000 97 Climbing Indianapolis Center
Wed 04:36:28 PM 39.2350 -86.4089 148° Southeast 462 532 32,100 816 Climbing Indianapolis Center
Wed 04:37:31 PM 39.1047 -86.3025 148° Southeast 464 534 33,700 1,392 Climbing Indianapolis Center
Wed 04:38:33 PM 39.0006 -86.2178 148° Southeast 449 517 35,000 629 Climbing Indianapolis Center
Wed 04:39:35 PM 38.8958 -86.1333 148° Southeast 448 516 35,000  Level Indianapolis Center
Wed 04:40:37 PM 38.7736 -86.0356 148° Southeast 469 540 35,000  Level Indianapolis Center
Wed 04:41:39 PM 38.6572 -85.9417 148° Southeast 487 560 35,000  Level Indianapolis Center
Wed 04:42:41 PM 38.5439 -85.8508 148° Southeast 480 552 35,000  Level Indianapolis Center
Wed 04:43:43 PM 38.4325 -85.7617 148° Southeast 472 543 35,000  Level Indianapolis Center
Wed 04:44:45 PM 38.3206 -85.6742 148° Southeast 470 541 35,000  Level Indianapolis Center
Wed 04:45:47 PM 38.2103 -85.5864 148° Southeast 464 534 35,000  Level Indianapolis Center
Wed 04:46:49 PM 38.1003 -85.4983 148° Southeast 463 533 35,000  Level Indianapolis Center
Wed 04:47:51 PM 37.9656 -85.3944 149° Southeast 469 540 35,000  Level Indianapolis Center
Wed 04:48:53 PM 37.8525 -85.3056 148° Southeast 473 544 35,000  Level Indianapolis Center
Wed 04:49:55 PM 37.7333 -85.2100 148° Southeast 477 549 35,000  Level Indianapolis Center
Wed 04:50:57 PM 37.6167 -85.1222 149° Southeast 484 557 35,000  Level Indianapolis Center
Wed 04:51:59 PM 37.5025 -85.0356 149° Southeast 480 552 35,000  Level Indianapolis Center
Wed 04:53:01 PM 37.3908 -84.9486 148° Southeast 474 545 35,000  Level Indianapolis Center
Wed 04:54:03 PM 37.2781 -84.8631 149° Southeast 474 545 35,000  Level Indianapolis Center
Wed 04:55:05 PM 37.1408 -84.7989 160° South 452 520 35,000  Level Indianapolis Center
Wed 04:56:07 PM 37.0189 -84.7281 155° Southeast 462 532 35,000  Level Indianapolis Center
Wed 04:57:10 PM 36.9078 -84.6433 149° Southeast 464 534 35,000  Level Indianapolis Center
Wed 04:58:12 PM 36.7981 -84.5589 148° Southeast 463 533 35,000  Level Indianapolis Center
Wed 04:59:14 PM 36.6978 -84.4817 148° Southeast 462 532 35,000  Level Indianapolis Center
Wed 05:00:16 PM 36.5700 -84.3839 148° Southeast 461 531 35,000  Level Indianapolis Center
Wed 05:01:18 PM 36.4697 -84.3064 148° Southeast 459 528 35,000  Level Indianapolis Center
Wed 05:02:20 PM 36.3589 -84.2236 149° Southeast 461 531 35,000  Level Indianapolis Center
Wed 05:03:22 PM 36.2256 -84.1222 148° Southeast 464 534 35,000  Level Indianapolis Center
Wed 05:04:24 PM 36.1153 -84.0394 149° Southeast 462 532 35,000  Level Indianapolis Center
Wed 05:05:17 PM 36.0250 -83.9719 149° Southeast 465 535 35,000  Level Atlanta Center
Wed 05:06:17 PM 35.9164 -83.8900 149° Southeast 465 535 35,000  Level Atlanta Center
Wed 05:07:17 PM 35.8056 -83.8083 149° Southeast 465 535 35,000  Level Atlanta Center
Wed 05:08:17 PM 35.6969 -83.7294 149° Southeast 465 535 35,000  Level Atlanta Center
Wed 05:09:17 PM 35.5842 -83.6481 150° Southeast 465 535 35,000  Level Atlanta Center
Wed 05:10:17 PM 35.4753 -83.5669 149° Southeast 465 535 35,000  Level Atlanta Center
Wed 05:11:17 PM 35.3664 -83.4861 149° Southeast 465 535 35,000  Level Atlanta Center
Wed 05:12:17 PM 35.2575 -83.4053 149° Southeast 465 535 35,000  Level Atlanta Center
Wed 05:13:17 PM 35.1383 -83.3175 149° Southeast 465 535 35,000  Level Atlanta Center
Wed 05:14:17 PM 35.0314 -83.2372 148° Southeast 465 535 35,000  Level Atlanta Center
Wed 05:15:17 PM 34.9328 -83.1647 149° Southeast 460 529 35,000  Level Atlanta Center
Wed 05:16:17 PM 34.8194 -83.0825 149° Southeast 473 544 35,000  Level Atlanta Center
Wed 05:17:17 PM 34.7103 -83.0053 150° Southeast 473 544 35,000  Level Atlanta Center
Wed 05:18:17 PM 34.5989 -82.9233 149° Southeast 473 544 35,000 -50 Level Atlanta Center
Wed 05:19:17 PM 34.4897 -82.8517 152° Southeast 460 529 34,900 -1,400 Descending Atlanta Center
Wed 05:20:17 PM 34.3597 -82.7781 155° Southeast 452 520 32,200 -2,450 Descending Atlanta Center
Wed 05:21:17 PM 34.2672 -82.7317 157° South 460 529 30,000 -1,100 Descending Atlanta Center
Wed 05:22:17 PM 34.1350 -82.6636 157° South 444 511 30,000  Level Atlanta Center
Wed 05:23:17 PM 34.0278 -82.5825 148° Southeast 434 499 30,000  Level Atlanta Center
Wed 05:24:17 PM 33.9203 -82.5042 149° Southeast 449 517 30,000  Level Atlanta Center
Wed 05:25:17 PM 33.8086 -82.4214 148° Southeast 462 532 30,000 -400 Level Atlanta Center
Wed 05:26:17 PM 33.6969 -82.3408 149° Southeast 462 532 29,200 -1,438 Descending Atlanta Center
Wed 05:27:18 PM 33.5994 -82.2381 139° Southeast 473 544 27,100 -1,376 Descending Atlanta Center
Wed 05:28:54 PM 33.4497 -82.0736 137° Southeast 521 600 25,600 -808 Descending Jacksonville Center
Wed 05:29:54 PM 33.3428 -81.9875 146° Southeast 497 572 25,000 -7,300 Descending Jacksonville Center
Wed 05:30:54 PM 33.2253 -81.9167 153° Southeast 476 548 11,000 -2,200 Descending Jacksonville Center
Wed 05:31:54 PM 33.1142 -81.8436 151° Southeast 468 539 20,600 3,750 Climbing Jacksonville Center
Wed 05:32:54 PM 33.0258 -81.7850 151° Southeast 435 501 18,500 -2,300 Descending Jacksonville Center
Wed 05:33:54 PM 32.9294 -81.7294 154° Southeast 401 461 16,000 -2,450 Descending Jacksonville Center
Wed 05:34:54 PM 32.8353 -81.6958 163° South 377 434 13,600 -2,050 Descending Jacksonville Center
Wed 05:35:54 PM 32.7306 -81.6603 164° South 364 419 11,900 -1,700 Descending Jacksonville Center
Wed 05:36:54 PM 32.6489 -81.6367 166° South 338 389 10,200 -1,800 Descending Jacksonville Center
Wed 05:37:54 PM 32.5875 -81.5711 138° Southeast 289 333 8,300 -1,800 Descending Jacksonville Center
Wed 05:38:54 PM 32.5408 -81.4953 126° Southeast 288 331 6,600 -1,650 Descending Jacksonville Center
Wed 05:39:54 PM 32.4983 -81.4294 127° Southeast 288 331 5,000 -1,600 Descending Jacksonville Center
Wed 05:40:54 PM 32.4558 -81.3564 125° Southeast 278 320 3,400 -1,500 Descending Jacksonville Center
Wed 05:41:54 PM 32.4108 -81.2783 124° Southeast 266 306 2,000 -700 Descending Jacksonville Center
Wed 05:42:54 PM 32.3600 -81.2228 137° Southeast 254 292 2,000  Level Jacksonville Center
Wed 05:43:54 PM 32.3072 -81.1719 141° Southeast 247 284 2,000  Level Jacksonville Center
Wed 05:44:54 PM 32.2586 -81.1286 143° Southeast 252 290 2,000  Level Jacksonville Center

Login

Don't have an account? Register now (free) for customized features, flight alerts, and more!